createdAt,value
2023-01-09T00:08:25.053Z,8.80
2023-01-09T00:18:28.760Z,8.70
2023-01-09T00:28:34.553Z,8.70
2023-01-09T00:38:38.700Z,8.70
2023-01-09T00:48:46.888Z,8.70
2023-01-09T00:58:51.089Z,8.60
2023-01-09T01:08:57.082Z,8.70
2023-01-09T01:19:00.730Z,8.70
2023-01-09T01:29:05.683Z,8.70
2023-01-09T01:39:09.347Z,8.70
2023-01-09T01:49:20.314Z,8.70
2023-01-09T01:59:27.691Z,8.70
2023-01-09T02:09:32.825Z,8.70
2023-01-09T02:20:21.546Z,8.80
2023-01-09T02:30:38.324Z,9.00
2023-01-09T02:40:51.535Z,9.00
2023-01-09T02:51:11.928Z,9.00
2023-01-09T03:01:28.325Z,8.90
2023-01-09T03:11:41.487Z,8.80
2023-01-09T03:21:45.987Z,8.70
2023-01-09T03:31:51.720Z,8.60
2023-01-09T03:41:55.488Z,8.60
2023-01-09T03:52:00.429Z,8.50
2023-01-09T04:02:04.359Z,8.50
2023-01-09T04:12:09.668Z,8.60
2023-01-09T04:22:13.309Z,8.40
2023-01-09T04:32:18.294Z,8.30
2023-01-09T04:42:21.921Z,8.30
2023-01-09T04:52:27.422Z,8.30
2023-01-09T05:02:31.058Z,8.30
2023-01-09T05:12:36.386Z,8.20
2023-01-09T05:22:40.210Z,8.20
2023-01-09T05:32:45.554Z,8.10
2023-01-09T05:42:49.208Z,8.00
2023-01-09T05:53:00.309Z,7.90
2023-01-09T06:03:04.176Z,7.90
2023-01-09T06:13:09.249Z,7.90
2023-01-09T06:23:13.764Z,7.90
2023-01-09T06:33:19.139Z,7.80
2023-01-09T06:43:22.791Z,7.60
2023-01-09T06:53:28.254Z,7.60
2023-01-09T07:03:33.711Z,7.80
2023-01-09T07:13:38.998Z,7.90
2023-01-09T07:23:42.676Z,8.20
2023-01-09T07:33:47.730Z,8.10
2023-01-09T07:43:51.375Z,8.10
2023-01-09T07:53:56.571Z,8.10
2023-01-09T08:04:00.610Z,8.10
2023-01-09T08:14:05.742Z,8.10
2023-01-09T08:24:11.049Z,8.10
2023-01-09T08:34:16.088Z,8.20
2023-01-09T08:44:37.345Z,8.20
2023-01-09T08:54:42.365Z,8.20
2023-01-09T09:04:46.213Z,8.30
2023-01-09T09:15:09.141Z,8.40
2023-01-09T09:25:12.890Z,8.50
2023-01-09T09:35:18.845Z,8.60
2023-01-09T09:45:36.122Z,8.60
2023-01-09T09:55:43.259Z,8.70
2023-01-09T10:05:49.546Z,8.80
2023-01-09T10:16:05.469Z,8.90
2023-01-09T10:26:18.164Z,9.00
2023-01-09T10:36:59.199Z,9.10
2023-01-09T10:47:05.707Z,9.00
2023-01-09T10:57:16.653Z,8.80
2023-01-09T11:07:24.546Z,8.90
2023-01-09T11:17:30.626Z,8.80
2023-01-09T11:27:34.359Z,9.00
2023-01-09T11:37:39.541Z,9.30
2023-01-09T11:47:44.698Z,9.40
2023-01-09T11:57:53.056Z,9.50
2023-01-09T12:08:25.384Z,10.10
2023-01-09T12:18:56.303Z,10.40
2023-01-09T12:29:19.294Z,10.20
2023-01-09T12:39:42.956Z,10.00
2023-01-09T12:49:55.832Z,9.60
2023-01-09T13:00:07.685Z,9.40
2023-01-09T13:10:24.211Z,9.40
2023-01-09T13:20:38.413Z,9.40
2023-01-09T13:31:28.668Z,9.40
2023-01-09T13:41:51.295Z,9.40
2023-01-09T13:52:04.954Z,9.30
2023-01-09T14:02:56.421Z,9.40
2023-01-09T14:13:00.422Z,9.40
2023-01-09T14:23:31.533Z,9.50
2023-01-09T14:33:32.901Z,9.50
2023-01-09T14:44:00.144Z,9.40
2023-01-09T14:54:15.897Z,9.20
2023-01-09T15:04:31.675Z,9.10
2023-01-09T15:14:39.988Z,9.00
2023-01-09T15:24:44.979Z,8.90
2023-01-09T15:34:50.307Z,8.90
2023-01-09T15:44:55.629Z,8.70
2023-01-09T15:54:59.383Z,8.60
2023-01-09T16:05:09.446Z,8.60
2023-01-09T16:15:18.622Z,8.50
2023-01-09T16:25:31.104Z,8.40
2023-01-09T16:35:34.934Z,8.40
2023-01-09T16:45:42.142Z,8.60
2023-01-09T16:55:47.129Z,8.30
2023-01-09T17:05:55.113Z,8.40
2023-01-09T17:16:00.484Z,8.40
2023-01-09T17:26:23.359Z,8.30
2023-01-09T17:36:32.518Z,8.20
2023-01-09T17:46:41.031Z,8.10
2023-01-09T17:56:48.821Z,8.10
2023-01-09T18:06:54.575Z,8.00
2023-01-09T18:16:58.640Z,7.80
2023-01-09T18:27:03.908Z,7.90
2023-01-09T18:37:07.700Z,7.80
2023-01-09T18:47:12.752Z,7.80
2023-01-09T18:57:17.106Z,7.70
2023-01-09T19:07:22.217Z,7.80
2023-01-09T19:17:25.914Z,8.00
2023-01-09T19:27:31.644Z,7.60
2023-01-09T19:37:37.176Z,7.50
2023-01-09T19:47:47.461Z,7.40
2023-01-09T19:57:51.237Z,7.30
2023-01-09T20:07:57.451Z,7.10
2023-01-09T20:18:02.029Z,7.20
2023-01-09T20:28:07.115Z,7.20
2023-01-09T20:38:11.326Z,7.20
2023-01-09T20:48:16.644Z,7.10
2023-01-09T20:58:20.334Z,7.10
2023-01-09T21:08:25.503Z,6.90
2023-01-09T21:18:29.528Z,6.80
2023-01-09T21:28:41.101Z,6.70
2023-01-09T21:38:45.768Z,6.60
2023-01-09T21:48:51.031Z,6.60
2023-01-09T21:58:54.851Z,6.50
2023-01-09T22:09:00.939Z,6.80
2023-01-09T22:19:04.853Z,7.00
2023-01-09T22:29:09.908Z,7.00
2023-01-09T22:39:16.940Z,6.90
2023-01-09T22:49:26.393Z,6.80
2023-01-09T22:59:32.328Z,6.60
2023-01-09T23:09:37.498Z,6.50
2023-01-09T23:19:41.301Z,6.60
2023-01-09T23:29:46.755Z,6.70
2023-01-09T23:39:50.449Z,6.70
2023-01-09T23:49:55.523Z,6.80
2023-01-09T23:59:59.177Z,6.80
